Terminal Aerodrome Forecast
Issued by NWS

Home | Current Version | Previous Version | Text Only | Print | Product List | Glossary On
Versions: 1 2 3 4 5 6 7 8 9 10 11 12 13 14 15 16
098
FTUS41 KBGM 230532
TAFRME
TAF
KRME 230532Z 2306/2406 VRB02KT P6SM FEW050
     FM230700 VRB02KT 5SM BR FEW250
      TEMPO 2309/2311 2SM BR
     FM231200 VRB03KT P6SM FEW250
     FM240300 06003KT P6SM BKN080=

USA.gov is the U.S. government's official web portal to all federal, state and local government web resources and services.